Time;durP1;ratioP1;P1;durP2;ratioP2;P2;SDS_P1;SDS_P2;PMS_P1;PMS_P2;Temp;Humidity;BMP_temperature;BMP_pressure;BME280_temperature;BME280_humidity;BME280_pressure;Samples;Min_cycle;Max_cycle;Signal;HPM_P1;HPM_P2
2023/12/18 00:00:51;;;;;;;1.00;1.00;;;;;;;;;;5097010;28;20030;-20
2023/12/18 00:03:18;;;;;;;1.15;1.05;;;;;;;;;;5096954;28;20040;-20
2023/12/18 00:05:44;;;;;;;1.40;1.30;;;;;;;;;;5097507;28;20343;-21
2023/12/18 00:08:11;;;;;;;1.10;1.00;;;;;;;;;;5097012;28;20020;-21
2023/12/18 00:10:37;;;;;;;1.02;1.02;;;;;;;;;;5097174;28;20024;-19
2023/12/18 00:13:05;;;;;;;1.17;1.08;;;;;;;;;;5096828;28;20027;-19
2023/12/18 00:15:31;;;;;;;0.80;0.80;;;;;;;;;;5096766;28;20020;-21
2023/12/18 00:17:57;;;;;;;1.30;1.15;;;;;;;;;;5097040;28;20113;-20
2023/12/18 00:20:24;;;;;;;1.20;1.10;;;;;;;;;;5097248;28;20039;-20
2023/12/18 00:22:50;;;;;;;1.40;1.20;;;;;;;;;;5096556;28;20035;-24
2023/12/18 00:25:16;;;;;;;1.52;1.27;;;;;;;;;;5096889;28;20032;-20
2023/12/18 00:27:42;;;;;;;1.20;1.08;;;;;;;;;;5096849;28;20031;-21
2023/12/18 00:30:09;;;;;;;0.85;0.80;;;;;;;;;;5096469;28;20091;-20
2023/12/18 00:32:35;;;;;;;1.17;1.00;;;;;;;;;;5096477;28;20099;-19
2023/12/18 00:35:01;;;;;;;0.93;0.93;;;;;;;;;;5096401;28;20089;-23
2023/12/18 00:37:27;;;;;;;1.60;1.50;;;;;;;;;;5096231;28;20032;-20
2023/12/18 00:39:53;;;;;;;1.30;1.20;;;;;;;;;;5096308;28;20032;-19
2023/12/18 00:42:19;;;;;;;1.40;1.10;;;;;;;;;;5096319;28;20024;-20
2023/12/18 00:44:45;;;;;;;1.40;0.75;;;;;;;;;;5096277;28;20020;-19
2023/12/18 00:47:12;;;;;;;1.90;1.50;;;;;;;;;;5096209;28;20020;-24
2023/12/18 00:49:38;;;;;;;1.95;1.17;;;;;;;;;;5096146;28;20032;-23
2023/12/18 00:52:04;;;;;;;1.85;1.00;;;;;;;;;;5096353;28;20404;-24
2023/12/18 00:54:30;;;;;;;1.13;0.93;;;;;;;;;;5096302;28;20028;-18
2023/12/18 00:56:56;;;;;;;1.10;1.00;;;;;;;;;;5096254;28;20397;-20
2023/12/18 00:59:22;;;;;;;1.35;1.10;;;;;;;;;;5095924;28;20355;-21
2023/12/18 01:01:48;;;;;;;2.92;1.25;;;;;;;;;;5096134;28;20024;-18
2023/12/18 01:04:15;;;;;;;1.42;1.20;;;;;;;;;;5095597;28;20036;-22
2023/12/18 01:06:41;;;;;;;1.42;1.10;;;;;;;;;;5095798;28;20109;-20
2023/12/18 01:09:08;;;;;;;1.75;1.10;;;;;;;;;;5096317;28;20077;-21
2023/12/18 01:11:35;;;;;;;1.23;1.10;;;;;;;;;;5095727;28;20035;-20
2023/12/18 01:14:01;;;;;;;1.33;1.20;;;;;;;;;;5095628;28;20375;-19
2023/12/18 01:16:27;;;;;;;1.20;1.02;;;;;;;;;;5095533;28;20039;-20
2023/12/18 01:18:53;;;;;;;1.27;1.17;;;;;;;;;;5096114;28;20036;-21
2023/12/18 01:21:19;;;;;;;0.90;0.88;;;;;;;;;;5095583;28;20418;-17
2023/12/18 01:23:45;;;;;;;1.02;0.80;;;;;;;;;;5095415;28;20028;-21
2023/12/18 01:26:11;;;;;;;1.58;1.33;;;;;;;;;;5095544;28;20020;-20
2023/12/18 01:28:40;;;;;;;1.15;1.08;;;;;;;;;;5095479;28;20020;-21
2023/12/18 01:31:07;;;;;;;1.33;1.00;;;;;;;;;;5095267;28;20035;-21
2023/12/18 01:33:34;;;;;;;1.70;1.40;;;;;;;;;;5095289;28;20035;-19
2023/12/18 01:36:00;;;;;;;1.25;0.98;;;;;;;;;;5095319;28;20510;-19
2023/12/18 01:38:26;;;;;;;1.42;1.17;;;;;;;;;;5095245;28;20071;-25
2023/12/18 01:40:52;;;;;;;1.23;1.15;;;;;;;;;;5095229;28;20039;-19
2023/12/18 01:43:25;;;;;;;1.60;1.25;;;;;;;;;;5095148;28;20028;-20
2023/12/18 01:45:54;;;;;;;1.25;1.00;;;;;;;;;;5094151;28;20020;-20
2023/12/18 01:48:21;;;;;;;0.80;0.80;;;;;;;;;;5094151;28;20020;-20
2023/12/18 01:50:47;;;;;;;1.27;1.17;;;;;;;;;;5094548;28;20031;-21
2023/12/18 01:53:13;;;;;;;0.90;0.90;;;;;;;;;;5095029;28;20040;-18
2023/12/18 01:55:39;;;;;;;1.33;0.98;;;;;;;;;;5094026;28;20108;-21
2023/12/18 01:58:05;;;;;;;1.10;1.00;;;;;;;;;;5094959;28;20039;-21
2023/12/18 02:00:32;;;;;;;1.30;1.20;;;;;;;;;;5094853;28;20038;-19
2023/12/18 02:02:58;;;;;;;1.10;0.88;;;;;;;;;;5094655;28;20067;-21
2023/12/18 02:05:25;;;;;;;1.60;1.10;;;;;;;;;;5095178;28;20016;-20
2023/12/18 02:07:51;;;;;;;0.82;0.73;;;;;;;;;;5094853;28;20436;-21
2023/12/18 02:10:17;;;;;;;1.40;1.30;;;;;;;;;;5094835;28;20487;-21
2023/12/18 02:12:43;;;;;;;1.63;1.00;;;;;;;;;;5094788;28;20095;-19
2023/12/18 02:15:09;;;;;;;1.52;1.27;;;;;;;;;;5094678;28;20112;-22
2023/12/18 02:17:36;;;;;;;1.05;0.90;;;;;;;;;;5094762;28;20024;-20
2023/12/18 02:20:06;;;;;;;1.05;1.00;;;;;;;;;;5094958;28;20020;-19
2023/12/18 02:23:04;;;;;;;1.75;1.20;;;;;;;;;;5095299;28;20020;-18
2023/12/18 02:25:31;;;;;;;1.02;0.93;;;;;;;;;;5050885;28;20040;-21
2023/12/18 02:27:57;;;;;;;1.10;1.00;;;;;;;;;;5094919;28;20328;-22
2023/12/18 02:30:23;;;;;;;1.17;1.10;;;;;;;;;;5094560;28;20047;-17
2023/12/18 02:32:50;;;;;;;1.25;1.15;;;;;;;;;;5094605;28;20103;-20
2023/12/18 02:35:16;;;;;;;1.42;1.10;;;;;;;;;;5094812;28;20043;-23
2023/12/18 02:37:42;;;;;;;1.17;1.08;;;;;;;;;;5094577;28;20473;-23
2023/12/18 02:40:09;;;;;;;2.03;1.20;;;;;;;;;;5094563;28;20021;-21
2023/12/18 02:42:35;;;;;;;1.27;1.10;;;;;;;;;;5094782;28;20347;-20
2023/12/18 02:45:04;;;;;;;1.33;1.17;;;;;;;;;;5094914;28;20032;-21
2023/12/18 02:47:30;;;;;;;1.50;1.20;;;;;;;;;;5094447;28;20028;-24
2023/12/18 02:49:56;;;;;;;1.88;1.27;;;;;;;;;;5094704;28;20027;-22
2023/12/18 02:52:22;;;;;;;1.70;1.15;;;;;;;;;;5094442;28;20044;-20
2023/12/18 02:54:48;;;;;;;2.55;1.48;;;;;;;;;;5094426;28;20042;-20
2023/12/18 02:57:15;;;;;;;1.83;1.48;;;;;;;;;;5094624;28;20028;-18
2023/12/18 02:59:41;;;;;;;1.20;1.20;;;;;;;;;;5094548;28;20028;-20
2023/12/18 03:02:07;;;;;;;1.35;1.25;;;;;;;;;;5096160;28;20028;-19
2023/12/18 03:04:33;;;;;;;1.90;1.30;;;;;;;;;;5097986;28;20119;-22
2023/12/18 03:06:59;;;;;;;1.98;1.50;;;;;;;;;;5098419;28;20050;-21
2023/12/18 03:09:25;;;;;;;1.77;1.67;;;;;;;;;;5098107;28;20101;-20
2023/12/18 03:11:52;;;;;;;1.20;0.95;;;;;;;;;;5098063;28;20035;-24
2023/12/18 03:14:18;;;;;;;1.55;1.45;;;;;;;;;;5098277;28;20028;-23
2023/12/18 03:16:44;;;;;;;1.58;1.48;;;;;;;;;;5097888;28;20035;-24
2023/12/18 03:19:10;;;;;;;1.85;1.00;;;;;;;;;;5097962;28;20027;-21
2023/12/18 03:21:36;;;;;;;1.38;1.23;;;;;;;;;;5098179;28;20451;-22
2023/12/18 03:24:02;;;;;;;1.35;1.25;;;;;;;;;;5098357;28;20032;-22
2023/12/18 03:26:28;;;;;;;1.65;1.48;;;;;;;;;;5097815;28;20020;-21
2023/12/18 03:28:54;;;;;;;2.35;1.40;;;;;;;;;;5098027;28;20435;-21
2023/12/18 03:31:21;;;;;;;1.67;1.20;;;;;;;;;;5097861;28;20396;-20
2023/12/18 03:33:47;;;;;;;1.58;1.23;;;;;;;;;;5097636;28;20115;-19
2023/12/18 03:36:13;;;;;;;1.88;1.50;;;;;;;;;;5097824;28;20032;-21
2023/12/18 03:38:39;;;;;;;1.45;1.35;;;;;;;;;;5097553;28;20024;-21
2023/12/18 03:41:05;;;;;;;1.55;1.40;;;;;;;;;;5097514;28;20028;-22
2023/12/18 03:43:31;;;;;;;1.60;1.40;;;;;;;;;;5097396;28;20071;-22
2023/12/18 03:45:57;;;;;;;1.25;1.15;;;;;;;;;;5097643;28;20024;-21
2023/12/18 03:48:24;;;;;;;1.80;1.17;;;;;;;;;;5097353;28;20032;-20
2023/12/18 03:50:50;;;;;;;1.63;1.30;;;;;;;;;;5097342;28;20020;-22
2023/12/18 03:53:16;;;;;;;1.35;1.25;;;;;;;;;;5097517;28;20035;-21
2023/12/18 03:55:42;;;;;;;1.30;1.13;;;;;;;;;;5097234;28;20077;-18
2023/12/18 03:58:08;;;;;;;1.00;0.93;;;;;;;;;;5097191;28;20057;-20
2023/12/18 04:00:34;;;;;;;1.60;1.50;;;;;;;;;;5097030;28;20024;-20
2023/12/18 04:03:03;;;;;;;1.38;1.27;;;;;;;;;;5096828;28;20115;-19
2023/12/18 04:05:29;;;;;;;2.25;1.70;;;;;;;;;;5097035;28;20107;-21
2023/12/18 04:07:55;;;;;;;2.40;1.40;;;;;;;;;;5097014;28;20024;-19
2023/12/18 04:10:21;;;;;;;1.40;1.30;;;;;;;;;;5096949;28;20028;-22
2023/12/18 04:12:47;;;;;;;1.20;1.10;;;;;;;;;;5096410;28;20028;-23
2023/12/18 04:15:13;;;;;;;2.17;1.50;;;;;;;;;;5096781;28;20027;-19
2023/12/18 04:17:40;;;;;;;2.13;1.50;;;;;;;;;;5097094;28;20020;-19
2023/12/18 04:20:06;;;;;;;1.65;1.55;;;;;;;;;;5096769;28;20039;-22
2023/12/18 04:22:32;;;;;;;1.70;1.60;;;;;;;;;;5095717;28;20113;-20
2023/12/18 04:24:59;;;;;;;1.40;1.30;;;;;;;;;;5096587;28;20492;-20
2023/12/18 04:27:25;;;;;;;2.92;1.85;;;;;;;;;;5096563;28;20488;-22
2023/12/18 04:29:51;;;;;;;2.78;1.45;;;;;;;;;;5096543;28;20035;-19
2023/12/18 04:32:17;;;;;;;1.42;1.20;;;;;;;;;;5096767;28;20041;-21
2023/12/18 04:34:44;;;;;;;1.92;1.55;;;;;;;;;;5096476;28;20020;-21
2023/12/18 04:37:10;;;;;;;1.42;1.30;;;;;;;;;;5096474;28;20427;-19
2023/12/18 04:39:37;;;;;;;1.42;1.33;;;;;;;;;;5096629;28;20359;-21
2023/12/18 04:42:03;;;;;;;1.45;1.35;;;;;;;;;;5096601;28;20047;-24
2023/12/18 04:44:29;;;;;;;1.30;1.20;;;;;;;;;;5096383;28;20405;-20
2023/12/18 04:46:56;;;;;;;2.05;1.50;;;;;;;;;;5096142;28;20112;-20
2023/12/18 04:49:22;;;;;;;1.33;1.23;;;;;;;;;;5096197;28;20022;-21
2023/12/18 04:51:48;;;;;;;1.67;1.58;;;;;;;;;;5096157;28;20110;-19
2023/12/18 04:54:14;;;;;;;1.27;1.17;;;;;;;;;;5096344;28;20102;-22
2023/12/18 04:56:40;;;;;;;1.42;1.20;;;;;;;;;;5096408;28;20336;-20
2023/12/18 04:59:06;;;;;;;1.60;1.30;;;;;;;;;;5096176;28;20032;-19
2023/12/18 05:01:33;;;;;;;1.25;1.17;;;;;;;;;;5095854;28;20077;-21
2023/12/18 05:03:59;;;;;;;1.50;1.40;;;;;;;;;;5095656;28;20048;-23
2023/12/18 05:06:26;;;;;;;1.77;1.35;;;;;;;;;;5096090;28;20024;-23
2023/12/18 05:08:53;;;;;;;1.67;1.30;;;;;;;;;;5095745;28;20101;-21
2023/12/18 05:11:19;;;;;;;2.30;1.85;;;;;;;;;;5095936;28;20091;-20
2023/12/18 05:13:46;;;;;;;1.95;1.58;;;;;;;;;;5095902;28;20031;-22
2023/12/18 05:16:13;;;;;;;1.58;1.48;;;;;;;;;;5095603;28;20056;-21
2023/12/18 05:18:39;;;;;;;1.45;1.20;;;;;;;;;;5095599;28;20127;-23
2023/12/18 05:21:06;;;;;;;1.55;1.45;;;;;;;;;;5096007;28;20335;-21
2023/12/18 05:23:32;;;;;;;2.35;1.35;;;;;;;;;;5095266;28;20039;-18
2023/12/18 05:25:58;;;;;;;1.70;1.58;;;;;;;;;;5093567;28;20466;-21
2023/12/18 05:28:25;;;;;;;1.30;1.20;;;;;;;;;;5095759;28;20024;-21
2023/12/18 05:30:51;;;;;;;7.80;2.20;;;;;;;;;;5095193;28;20024;-18
2023/12/18 05:33:17;;;;;;;2.25;1.33;;;;;;;;;;5095250;28;20035;-23
2023/12/18 05:35:43;;;;;;;1.73;1.52;;;;;;;;;;5095481;28;20105;-20
2023/12/18 05:38:09;;;;;;;1.83;1.67;;;;;;;;;;5095328;28;20020;-20
2023/12/18 05:40:36;;;;;;;1.75;1.65;;;;;;;;;;5094991;28;20020;-21
2023/12/18 05:43:02;;;;;;;2.55;1.75;;;;;;;;;;5095126;28;20038;-19
2023/12/18 05:45:29;;;;;;;2.42;2.22;;;;;;;;;;5094900;28;20027;-21
2023/12/18 05:47:55;;;;;;;1.23;1.13;;;;;;;;;;5094889;28;20031;-21
2023/12/18 05:50:21;;;;;;;2.15;1.92;;;;;;;;;;5094626;28;20373;-22
2023/12/18 05:52:47;;;;;;;2.72;1.65;;;;;;;;;;5094994;28;20080;-24
2023/12/18 05:55:13;;;;;;;1.70;1.58;;;;;;;;;;5095000;28;20024;-22
2023/12/18 05:57:41;;;;;;;1.70;1.58;;;;;;;;;;5093741;28;20031;-22
2023/12/18 06:00:08;;;;;;;1.60;1.40;;;;;;;;;;5094547;28;20028;-20
2023/12/18 06:02:35;;;;;;;2.90;2.17;;;;;;;;;;5094657;28;20343;-21
2023/12/18 06:05:01;;;;;;;2.80;1.67;;;;;;;;;;5094527;28;20443;-21
2023/12/18 06:07:27;;;;;;;1.60;1.50;;;;;;;;;;5094553;28;20447;-22
2023/12/18 06:09:53;;;;;;;1.73;1.42;;;;;;;;;;5094533;28;20047;-19
2023/12/18 06:12:20;;;;;;;1.38;1.27;;;;;;;;;;5094381;28;20351;-22
2023/12/18 06:14:46;;;;;;;2.17;2.00;;;;;;;;;;5094634;28;20034;-20
2023/12/18 06:17:12;;;;;;;1.00;1.00;;;;;;;;;;5094816;28;20017;-21
2023/12/18 06:19:39;;;;;;;3.22;1.63;;;;;;;;;;5094740;28;20103;-22
2023/12/18 06:22:06;;;;;;;2.03;1.85;;;;;;;;;;5094392;28;20024;-25
2023/12/18 06:24:32;;;;;;;1.58;1.48;;;;;;;;;;5094386;28;20039;-18
2023/12/18 06:26:58;;;;;;;1.80;1.63;;;;;;;;;;5094738;28;20052;-23
2023/12/18 06:32:00;;;;;;;2.67;1.63;;;;;;;;;;5292745;22;19921;-24
2023/12/18 06:34:26;;;;;;;3.22;1.98;;;;;;;;;;5034449;28;20325;-24
2023/12/18 06:36:52;;;;;;;4.22;1.67;;;;;;;;;;5036828;28;20049;-26
2023/12/18 06:39:20;;;;;;;4.68;1.90;;;;;;;;;;5038438;28;20025;-25
2023/12/18 06:41:46;;;;;;;2.10;1.67;;;;;;;;;;5051576;28;20032;-25
2023/12/18 06:44:12;;;;;;;2.47;1.85;;;;;;;;;;5057825;28;20446;-27
2023/12/18 06:46:38;;;;;;;1.80;1.70;;;;;;;;;;5057941;28;20035;-24
2023/12/18 06:49:05;;;;;;;2.10;1.60;;;;;;;;;;5057873;28;20021;-28
2023/12/18 06:51:31;;;;;;;2.42;2.20;;;;;;;;;;5057740;28;20531;-26
2023/12/18 06:53:57;;;;;;;3.15;1.77;;;;;;;;;;5057871;28;20024;-25
2023/12/18 06:56:24;;;;;;;6.32;2.03;;;;;;;;;;5057778;28;20104;-25
2023/12/18 06:58:50;;;;;;;3.70;1.77;;;;;;;;;;5056749;28;20104;-23
2023/12/18 07:01:16;;;;;;;4.35;2.42;;;;;;;;;;5057952;28;20033;-25
2023/12/18 07:03:43;;;;;;;2.50;2.30;;;;;;;;;;5057502;28;20025;-27
2023/12/18 07:06:09;;;;;;;3.35;1.88;;;;;;;;;;5056730;28;20444;-25
2023/12/18 07:08:35;;;;;;;2.60;2.00;;;;;;;;;;5058382;28;20075;-24
2023/12/18 07:11:02;;;;;;;2.25;2.10;;;;;;;;;;5057766;28;20052;-27
2023/12/18 07:13:28;;;;;;;3.00;1.80;;;;;;;;;;5057804;28;20352;-26
2023/12/18 07:15:54;;;;;;;2.33;1.98;;;;;;;;;;5057727;28;20083;-23
2023/12/18 07:18:20;;;;;;;2.95;1.75;;;;;;;;;;5057462;28;20355;-25
2023/12/18 07:20:46;;;;;;;4.22;2.28;;;;;;;;;;5057287;28;20455;-27
2023/12/18 07:23:12;;;;;;;3.22;1.65;;;;;;;;;;5057297;28;20021;-26
2023/12/18 07:25:38;;;;;;;2.42;1.48;;;;;;;;;;5057266;28;20049;-23
2023/12/18 07:28:09;;;;;;;2.50;1.60;;;;;;;;;;5057304;28;20134;-23
2023/12/18 07:30:35;;;;;;;2.03;1.63;;;;;;;;;;5056971;28;20460;-23
2023/12/18 07:33:01;;;;;;;1.48;1.38;;;;;;;;;;5057251;28;20037;-27
2023/12/18 07:35:27;;;;;;;1.70;1.60;;;;;;;;;;5057173;28;20017;-25
2023/12/18 07:37:53;;;;;;;2.17;1.95;;;;;;;;;;5057112;28;20439;-27
2023/12/18 07:40:19;;;;;;;1.58;1.40;;;;;;;;;;5056981;28;20422;-25
2023/12/18 07:42:45;;;;;;;1.90;1.70;;;;;;;;;;5056978;28;20021;-24
2023/12/18 07:45:12;;;;;;;2.22;1.50;;;;;;;;;;5056988;28;20039;-23
2023/12/18 07:47:39;;;;;;;1.85;1.35;;;;;;;;;;5056252;28;20020;-26
2023/12/18 07:50:09;;;;;;;1.95;1.75;;;;;;;;;;5057071;28;20320;-26
2023/12/18 07:52:35;;;;;;;2.00;1.73;;;;;;;;;;5056943;28;20063;-27
2023/12/18 07:55:02;;;;;;;5.25;1.80;;;;;;;;;;5056652;28;20025;-27
2023/12/18 07:57:28;;;;;;;3.55;1.80;;;;;;;;;;5056609;28;20360;-24
2023/12/18 07:59:55;;;;;;;2.10;1.92;;;;;;;;;;5056493;28;20025;-27
2023/12/18 08:02:21;;;;;;;5.22;2.78;;;;;;;;;;5056667;28;20039;-25
2023/12/18 08:04:47;;;;;;;1.75;1.60;;;;;;;;;;5056345;28;20032;-24
2023/12/18 08:07:13;;;;;;;2.08;1.55;;;;;;;;;;5056333;28;20522;-27
2023/12/18 08:09:41;;;;;;;5.45;2.20;;;;;;;;;;5056233;28;20439;-27
2023/12/18 08:12:08;;;;;;;7.63;2.45;;;;;;;;;;5056473;28;20359;-24
2023/12/18 08:14:34;;;;;;;3.80;2.22;;;;;;;;;;5056220;28;20055;-25
2023/12/18 08:17:00;;;;;;;3.65;1.90;;;;;;;;;;5056328;28;20025;-27
2023/12/18 08:19:26;;;;;;;2.15;1.65;;;;;;;;;;5056368;28;20078;-25
2023/12/18 08:21:52;;;;;;;1.73;1.63;;;;;;;;;;5056488;28;20039;-24
2023/12/18 08:24:20;;;;;;;2.92;1.80;;;;;;;;;;5056322;28;20459;-25
2023/12/18 08:26:49;;;;;;;2.40;1.90;;;;;;;;;;5056214;28;20456;-27
2023/12/18 08:29:15;;;;;;;6.50;2.63;;;;;;;;;;5055930;28;20048;-26
2023/12/18 08:31:42;;;;;;;5.30;2.47;;;;;;;;;;5055786;28;20048;-25
2023/12/18 08:34:09;;;;;;;5.43;2.10;;;;;;;;;;5055886;28;20054;-27
2023/12/18 08:36:36;;;;;;;6.15;2.30;;;;;;;;;;5055765;28;20090;-25
2023/12/18 08:39:03;;;;;;;3.55;1.65;;;;;;;;;;5056106;28;20352;-27
2023/12/18 08:41:29;;;;;;;3.03;2.08;;;;;;;;;;5055977;28;20024;-26
2023/12/18 08:43:56;;;;;;;3.83;2.00;;;;;;;;;;5055792;28;20047;-24
2023/12/18 08:46:22;;;;;;;3.30;2.22;;;;;;;;;;5056031;28;20040;-27
2023/12/18 08:48:48;;;;;;;4.93;2.25;;;;;;;;;;5055725;28;20467;-23
2023/12/18 08:51:16;;;;;;;3.67;2.00;;;;;;;;;;5055645;28;20031;-23
2023/12/18 08:53:42;;;;;;;2.55;1.92;;;;;;;;;;5055883;28;20104;-27
2023/12/18 08:56:08;;;;;;;9.07;1.95;;;;;;;;;;5055616;28;20319;-24
2023/12/18 08:58:34;;;;;;;3.47;1.67;;;;;;;;;;5055514;28;20024;-24
2023/12/18 09:01:01;;;;;;;2.45;1.50;;;;;;;;;;5055392;28;20521;-23
2023/12/18 09:03:27;;;;;;;2.17;1.55;;;;;;;;;;5055404;28;20359;-24
2023/12/18 09:05:54;;;;;;;3.28;1.77;;;;;;;;;;5055455;28;20021;-27
2023/12/18 09:08:20;;;;;;;1.73;1.63;;;;;;;;;;5054405;28;20025;-27
2023/12/18 09:10:46;;;;;;;4.90;1.77;;;;;;;;;;5055216;28;20486;-25
2023/12/18 09:13:12;;;;;;;2.80;1.92;;;;;;;;;;5055259;28;20052;-24
2023/12/18 09:15:40;;;;;;;2.90;2.00;;;;;;;;;;5055419;28;20017;-26
2023/12/18 09:18:07;;;;;;;1.67;1.58;;;;;;;;;;5055256;28;20024;-25
2023/12/18 09:20:33;;;;;;;2.70;2.17;;;;;;;;;;5054989;28;20470;-26
2023/12/18 09:23:00;;;;;;;2.35;2.05;;;;;;;;;;5055081;28;20036;-27
2023/12/18 09:25:26;;;;;;;3.28;1.90;;;;;;;;;;5055084;28;20039;-24
2023/12/18 09:27:52;;;;;;;6.65;1.75;;;;;;;;;;5054986;28;20025;-25
2023/12/18 09:30:18;;;;;;;4.40;1.88;;;;;;;;;;5054754;28;20078;-23
2023/12/18 09:32:44;;;;;;;2.30;1.40;;;;;;;;;;5054916;28;20394;-25
2023/12/18 09:35:11;;;;;;;6.32;2.95;;;;;;;;;;5054727;28;20118;-27
2023/12/18 09:37:37;;;;;;;1.98;1.50;;;;;;;;;;5054961;28;20090;-27
2023/12/18 09:40:03;;;;;;;3.17;1.50;;;;;;;;;;5054717;28;20021;-24
2023/12/18 09:42:30;;;;;;;3.33;1.60;;;;;;;;;;5054556;28;20017;-27
2023/12/18 09:44:58;;;;;;;2.85;1.70;;;;;;;;;;5054646;28;20075;-27
2023/12/18 09:47:25;;;;;;;1.83;1.65;;;;;;;;;;5054751;28;20070;-24
2023/12/18 09:49:52;;;;;;;3.08;1.83;;;;;;;;;;5054681;28;20025;-26
2023/12/18 09:52:19;;;;;;;3.45;1.80;;;;;;;;;;5054595;28;20070;-26
2023/12/18 09:54:46;;;;;;;3.03;2.15;;;;;;;;;;5054524;28;20025;-26
2023/12/18 09:57:15;;;;;;;5.32;1.63;;;;;;;;;;5054623;28;20025;-27
2023/12/18 09:59:41;;;;;;;2.70;2.10;;;;;;;;;;5054755;28;20434;-27
2023/12/18 10:02:08;;;;;;;1.90;1.80;;;;;;;;;;5054491;28;20021;-24
2023/12/18 10:04:35;;;;;;;7.30;2.30;;;;;;;;;;5054326;28;20114;-27
2023/12/18 10:07:01;;;;;;;3.38;2.85;;;;;;;;;;5054605;28;20025;-23
2023/12/18 10:09:28;;;;;;;3.72;1.75;;;;;;;;;;5054368;28;20025;-24
2023/12/18 10:11:54;;;;;;;3.15;1.88;;;;;;;;;;5053846;28;20017;-24
2023/12/18 10:14:20;;;;;;;5.70;2.38;;;;;;;;;;5053561;28;20025;-28
2023/12/18 10:16:46;;;;;;;5.63;2.47;;;;;;;;;;5054771;28;20021;-27
2023/12/18 10:19:13;;;;;;;4.07;1.77;;;;;;;;;;5054367;28;20021;-27
2023/12/18 10:21:39;;;;;;;3.63;2.63;;;;;;;;;;5054362;28;20048;-25
2023/12/18 10:24:05;;;;;;;3.83;2.10;;;;;;;;;;5054245;28;20041;-25
2023/12/18 10:26:32;;;;;;;4.90;2.25;;;;;;;;;;5054632;28;20025;-26
2023/12/18 10:28:58;;;;;;;2.90;2.22;;;;;;;;;;5054186;28;20075;-26
2023/12/18 10:31:25;;;;;;;8.00;2.20;;;;;;;;;;5054149;28;20371;-23
2023/12/18 10:33:52;;;;;;;2.15;2.00;;;;;;;;;;5054253;28;20086;-25
2023/12/18 10:36:18;;;;;;;3.78;1.70;;;;;;;;;;5054617;28;20026;-26
2023/12/18 10:38:51;;;;;;;2.97;2.05;;;;;;;;;;5054150;28;20096;-24
2023/12/18 10:41:21;;;;;;;2.53;2.08;;;;;;;;;;5054338;28;20029;-24
2023/12/18 10:43:48;;;;;;;4.22;2.30;;;;;;;;;;5054112;28;20036;-26
2023/12/18 10:46:15;;;;;;;3.30;2.28;;;;;;;;;;5054549;28;20025;-23
2023/12/18 10:48:44;;;;;;;3.83;2.55;;;;;;;;;;5053942;28;20039;-24
2023/12/18 10:51:12;;;;;;;3.60;1.90;;;;;;;;;;5054211;28;20036;-26
2023/12/18 10:53:39;;;;;;;2.90;2.55;;;;;;;;;;5053955;28;20128;-27
2023/12/18 10:56:06;;;;;;;2.85;2.00;;;;;;;;;;5054267;28;20355;-26
2023/12/18 10:58:34;;;;;;;2.42;2.00;;;;;;;;;;5054037;28;20025;-26
2023/12/18 11:01:01;;;;;;;3.70;2.00;;;;;;;;;;5053950;28;20028;-25
2023/12/18 11:03:29;;;;;;;3.20;2.85;;;;;;;;;;5053875;28;20063;-23
2023/12/18 11:05:56;;;;;;;2.38;2.03;;;;;;;;;;5054124;28;20056;-24
2023/12/18 11:08:22;;;;;;;5.32;1.98;;;;;;;;;;5054187;28;20028;-26
2023/12/18 11:10:48;;;;;;;2.58;1.90;;;;;;;;;;5053777;28;20100;-26
2023/12/18 11:13:20;;;;;;;4.38;2.30;;;;;;;;;;5053849;28;20025;-27
2023/12/18 11:16:00;;;;;;;4.53;2.50;;;;;;;;;;5054089;28;20301;-25
2023/12/18 11:18:44;;;;;;;5.90;2.75;;;;;;;;;;5053803;28;20021;-27
2023/12/18 11:21:10;;;;;;;3.95;2.55;;;;;;;;;;5053600;28;20096;-26
2023/12/18 11:23:40;;;;;;;3.58;2.47;;;;;;;;;;5055898;28;20351;-26
2023/12/18 11:26:10;;;;;;;5.15;3.90;;;;;;;;;;5057244;28;20370;-27
2023/12/18 11:28:36;;;;;;;4.53;2.67;;;;;;;;;;5057216;28;20021;-24
2023/12/18 11:31:02;;;;;;;7.70;2.67;;;;;;;;;;5056936;28;20120;-24
2023/12/18 11:33:29;;;;;;;7.00;3.58;;;;;;;;;;5057538;28;20025;-25
2023/12/18 11:35:57;;;;;;;4.03;2.22;;;;;;;;;;5057313;28;20090;-23
2023/12/18 11:38:24;;;;;;;5.80;2.47;;;;;;;;;;5057203;28;20086;-25
2023/12/18 11:40:52;;;;;;;7.00;3.00;;;;;;;;;;5057027;28;20414;-25
2023/12/18 11:43:35;;;;;;;6.38;2.70;;;;;;;;;;5057009;28;20017;-26
2023/12/18 11:46:01;;;;;;;3.92;2.72;;;;;;;;;;5056888;28;20029;-27
2023/12/18 11:48:27;;;;;;;6.47;3.17;;;;;;;;;;5056834;28;20029;-26
2023/12/18 11:50:54;;;;;;;3.30;2.67;;;;;;;;;;5056795;28;20024;-26
2023/12/18 11:53:32;;;;;;;5.35;3.03;;;;;;;;;;5057185;28;20032;-25
2023/12/18 11:55:58;;;;;;;5.57;3.22;;;;;;;;;;5057106;28;20071;-27
2023/12/18 11:58:25;;;;;;;3.65;2.53;;;;;;;;;;5057032;28;20417;-26
2023/12/18 12:00:52;;;;;;;2.85;2.55;;;;;;;;;;5056872;28;20017;-25
2023/12/18 12:03:19;;;;;;;6.10;2.42;;;;;;;;;;5056616;28;20033;-26
2023/12/18 12:05:48;;;;;;;3.35;2.33;;;;;;;;;;5056629;28;20112;-26
2023/12/18 12:08:15;;;;;;;6.05;3.38;;;;;;;;;;5057169;28;20021;-24
2023/12/18 12:10:41;;;;;;;7.30;2.90;;;;;;;;;;5056823;28;20052;-27
2023/12/18 12:13:07;;;;;;;4.57;2.70;;;;;;;;;;5056564;28;20086;-26
2023/12/18 12:15:34;;;;;;;3.97;2.40;;;;;;;;;;5056444;28;20021;-27
2023/12/18 12:18:07;;;;;;;5.07;2.45;;;;;;;;;;5056711;28;20329;-26
2023/12/18 12:20:33;;;;;;;2.63;2.35;;;;;;;;;;5056573;28;20029;-24
2023/12/18 12:23:00;;;;;;;4.93;2.35;;;;;;;;;;5056653;28;20028;-27
2023/12/18 12:25:26;;;;;;;2.70;2.20;;;;;;;;;;5056101;28;20040;-27
2023/12/18 12:27:52;;;;;;;2.70;1.90;;;;;;;;;;5056001;28;20021;-24
2023/12/18 12:30:19;;;;;;;6.07;2.60;;;;;;;;;;5055949;28;20028;-27
2023/12/18 12:32:46;;;;;;;3.25;2.10;;;;;;;;;;5055820;28;20076;-25
2023/12/18 12:35:15;;;;;;;3.47;2.20;;;;;;;;;;5055620;28;20040;-25
2023/12/18 12:37:42;;;;;;;8.32;2.38;;;;;;;;;;5055855;28;20021;-27
2023/12/18 12:40:09;;;;;;;4.60;2.13;;;;;;;;;;5055724;28;20328;-23
2023/12/18 12:42:40;;;;;;;10.35;3.67;;;;;;;;;;5055892;28;20127;-28
2023/12/18 12:45:06;;;;;;;;;;;;;;;;;;5056220;28;20029;-26
2023/12/18 12:47:33;;;;;;;5.25;3.05;;;;;;;;;;5054902;28;19904;-24
2023/12/18 12:50:04;;;;;;;7.38;2.38;;;;;;;;;;5056037;28;20048;-26
2023/12/18 12:52:31;;;;;;;7.20;2.30;;;;;;;;;;5055648;28;20053;-27
2023/12/18 12:54:57;;;;;;;19.23;4.07;;;;;;;;;;5055705;28;20359;-26
2023/12/18 12:57:24;;;;;;;10.20;2.83;;;;;;;;;;5055923;28;20033;-26
2023/12/18 12:59:53;;;;;;;10.27;2.63;;;;;;;;;;5055472;28;20029;-24
2023/12/18 13:02:20;;;;;;;7.53;2.47;;;;;;;;;;5055624;28;20080;-24
2023/12/18 13:04:48;;;;;;;9.00;2.70;;;;;;;;;;5055451;28;20043;-27
2023/12/18 13:07:15;;;;;;;8.90;2.70;;;;;;;;;;5055451;28;20020;-24
2023/12/18 13:09:41;;;;;;;5.43;2.45;;;;;;;;;;5055322;28;20063;-25
2023/12/18 13:12:08;;;;;;;4.88;2.47;;;;;;;;;;5055276;28;20021;-25
2023/12/18 13:14:35;;;;;;;7.55;2.63;;;;;;;;;;5055082;28;20379;-24
2023/12/18 13:17:05;;;;;;;10.75;3.35;;;;;;;;;;5055311;28;20032;-24
2023/12/18 13:19:31;;;;;;;3.25;2.42;;;;;;;;;;5055441;28;20339;-27
2023/12/18 13:21:58;;;;;;;10.82;2.65;;;;;;;;;;5055038;28;20025;-26
2023/12/18 13:24:24;;;;;;;7.25;2.45;;;;;;;;;;5055046;28;20032;-26
2023/12/18 13:26:51;;;;;;;10.52;2.90;;;;;;;;;;5054805;28;20095;-24
2023/12/18 13:29:17;;;;;;;13.65;2.65;;;;;;;;;;5054954;28;20063;-23
2023/12/18 13:31:43;;;;;;;6.18;2.75;;;;;;;;;;5054799;28;20041;-23
2023/12/18 13:34:09;;;;;;;6.90;2.47;;;;;;;;;;5055255;28;20017;-24
2023/12/18 13:36:36;;;;;;;4.72;2.05;;;;;;;;;;5054918;28;20399;-26
2023/12/18 13:39:02;;;;;;;2.65;2.33;;;;;;;;;;5054860;28;20044;-26
2023/12/18 13:41:35;;;;;;;5.32;2.08;;;;;;;;;;5055033;28;20309;-24
2023/12/18 13:44:02;;;;;;;5.18;2.20;;;;;;;;;;5054770;28;20036;-27
2023/12/18 13:46:28;;;;;;;8.57;2.47;;;;;;;;;;5054358;28;20021;-26
2023/12/18 13:48:54;;;;;;;9.95;3.35;;;;;;;;;;5054749;28;20021;-26
2023/12/18 13:51:21;;;;;;;6.47;2.53;;;;;;;;;;5054844;28;20121;-27
2023/12/18 13:53:47;;;;;;;12.43;3.20;;;;;;;;;;5054771;28;20021;-24
2023/12/18 13:56:13;;;;;;;6.88;2.55;;;;;;;;;;5054689;28;20029;-24
2023/12/18 13:58:40;;;;;;;3.35;2.78;;;;;;;;;;5054933;28;20453;-26
2023/12/18 14:01:07;;;;;;;6.47;2.30;;;;;;;;;;5054480;28;20051;-26
2023/12/18 14:03:33;;;;;;;3.13;2.25;;;;;;;;;;5054553;28;20033;-26
2023/12/18 14:06:03;;;;;;;3.75;2.17;;;;;;;;;;5054805;28;20045;-25
2023/12/18 14:08:29;;;;;;;4.28;2.03;;;;;;;;;;5054726;28;20349;-26
2023/12/18 14:10:57;;;;;;;6.20;2.40;;;;;;;;;;5054616;28;20031;-25
2023/12/18 14:13:23;;;;;;;2.05;1.80;;;;;;;;;;5054672;28;20096;-24
2023/12/18 14:15:50;;;;;;;3.00;2.10;;;;;;;;;;5054442;28;20460;-26
2023/12/18 14:18:17;;;;;;;5.82;1.77;;;;;;;;;;5054338;28;20024;-25
2023/12/18 14:20:43;;;;;;;2.85;2.40;;;;;;;;;;5054156;28;20016;-24
2023/12/18 14:23:09;;;;;;;5.63;2.10;;;;;;;;;;5054336;28;20028;-25
2023/12/18 14:25:35;;;;;;;5.18;1.77;;;;;;;;;;5054294;28;20021;-23
2023/12/18 14:28:01;;;;;;;5.07;2.85;;;;;;;;;;5054276;28;20089;-24
2023/12/18 14:30:28;;;;;;;4.38;2.05;;;;;;;;;;5053202;28;20448;-26
2023/12/18 14:32:54;;;;;;;6.93;1.92;;;;;;;;;;5054997;28;20448;-23
2023/12/18 14:35:21;;;;;;;3.08;2.05;;;;;;;;;;5054237;28;20495;-26
2023/12/18 14:37:47;;;;;;;3.53;2.60;;;;;;;;;;5054524;28;20087;-24
2023/12/18 14:40:13;;;;;;;2.72;1.95;;;;;;;;;;5054069;28;20028;-24
2023/12/18 14:42:39;;;;;;;3.05;1.95;;;;;;;;;;5054182;28;20090;-23